createdAt,value
2023-03-01T00:01:26.450Z,21.77
2023-03-01T00:03:56.014Z,21.80
2023-03-01T00:06:25.028Z,19.77
2023-03-01T00:08:54.102Z,19.07
2023-03-01T00:11:24.533Z,20.30
2023-03-01T00:13:55.930Z,20.20
2023-03-01T00:16:27.279Z,20.77
2023-03-01T00:18:56.239Z,19.17
2023-03-01T00:21:25.632Z,18.77
2023-03-01T00:23:54.672Z,17.43
2023-03-01T00:26:25.205Z,17.73
2023-03-01T00:28:56.354Z,18.87
2023-03-01T00:31:26.881Z,17.57
2023-03-01T00:33:58.012Z,17.27
2023-03-01T00:36:29.009Z,18.13
2023-03-01T00:38:57.954Z,17.83
2023-03-01T00:41:27.930Z,18.03
2023-03-01T00:43:58.049Z,18.53
2023-03-01T00:46:28.665Z,18.13
2023-03-01T00:48:57.455Z,19.67
2023-03-01T00:51:28.853Z,19.07
2023-03-01T00:54:00.674Z,22.37
2023-03-01T00:56:29.603Z,20.17
2023-03-01T00:58:59.385Z,19.83
2023-03-01T01:01:31.670Z,19.53
2023-03-01T01:04:01.721Z,18.57
2023-03-01T01:06:32.687Z,18.17
2023-03-01T01:09:02.024Z,18.30
2023-03-01T01:11:31.661Z,18.63
2023-03-01T01:14:01.885Z,18.63
2023-03-01T01:16:32.182Z,18.80
2023-03-01T01:19:00.700Z,18.37
2023-03-01T01:21:29.922Z,17.53
2023-03-01T01:23:59.372Z,17.77
2023-03-01T01:26:30.225Z,18.17
2023-03-01T01:28:59.758Z,16.93
2023-03-01T01:31:30.673Z,17.53
2023-03-01T01:34:00.271Z,17.70
2023-03-01T01:36:28.996Z,17.77
2023-03-01T01:38:58.026Z,17.80
2023-03-01T01:41:27.374Z,17.77
2023-03-01T01:44:12.985Z,19.07
2023-03-01T01:46:44.979Z,19.23
2023-03-01T01:49:22.818Z,19.00
2023-03-01T01:51:57.707Z,18.37
2023-03-01T01:54:28.640Z,17.70
2023-03-01T01:57:01.686Z,17.30
2023-03-01T01:59:31.924Z,17.63
2023-03-01T02:02:03.811Z,18.07
2023-03-01T02:04:33.129Z,16.60
2023-03-01T02:07:06.836Z,17.80
2023-03-01T02:09:36.318Z,17.23
2023-03-01T02:12:06.418Z,17.07
2023-03-01T02:14:35.554Z,17.00
2023-03-01T02:17:05.206Z,17.97
2023-03-01T02:19:49.432Z,18.20
2023-03-01T02:22:24.498Z,17.87
2023-03-01T02:25:01.966Z,17.77
2023-03-01T02:27:38.018Z,18.00
2023-03-01T02:30:08.890Z,17.10
2023-03-01T02:32:36.509Z,17.37
2023-03-01T02:35:07.497Z,17.50
2023-03-01T02:37:38.030Z,17.43
2023-03-01T02:40:12.544Z,17.40
2023-03-01T02:42:47.878Z,17.67
2023-03-01T02:45:17.649Z,18.57
2023-03-01T02:47:46.187Z,17.90
2023-03-01T02:50:33.277Z,18.30
2023-03-01T02:53:09.956Z,17.97
2023-03-01T02:55:38.245Z,17.90
2023-03-01T02:58:06.968Z,17.93
2023-03-01T03:00:41.166Z,17.57
2023-03-01T03:03:10.264Z,18.07
2023-03-01T03:05:38.524Z,17.63
2023-03-01T03:08:08.601Z,17.40
2023-03-01T03:10:41.017Z,18.17
2023-03-01T03:13:11.897Z,17.43
2023-03-01T03:15:43.028Z,18.03
2023-03-01T03:18:14.624Z,18.43
2023-03-01T03:20:44.409Z,17.57
2023-03-01T03:23:12.781Z,18.40
2023-03-01T03:25:41.331Z,18.17
2023-03-01T03:28:11.505Z,17.53
2023-03-01T03:30:42.999Z,18.00
2023-03-01T03:33:13.695Z,19.07
2023-03-01T03:35:45.306Z,18.40
2023-03-01T03:38:18.716Z,17.47
2023-03-01T03:40:48.502Z,17.93
2023-03-01T03:43:18.740Z,17.90
2023-03-01T03:45:49.260Z,17.77
2023-03-01T03:48:18.341Z,18.73
2023-03-01T03:50:51.213Z,17.87
2023-03-01T03:53:20.428Z,18.33
2023-03-01T03:55:50.285Z,18.00
2023-03-01T03:58:20.698Z,18.80
2023-03-01T04:00:52.156Z,19.03
2023-03-01T04:03:22.984Z,18.53
2023-03-01T04:05:52.140Z,18.73
2023-03-01T04:08:21.694Z,18.80
2023-03-01T04:10:52.232Z,19.03
2023-03-01T04:13:23.536Z,19.20
2023-03-01T04:15:53.569Z,19.07
2023-03-01T04:18:23.258Z,19.50
2023-03-01T04:20:53.318Z,18.23
2023-03-01T04:23:23.042Z,19.17
2023-03-01T04:25:55.543Z,19.47
2023-03-01T04:28:26.168Z,19.73
2023-03-01T04:30:57.484Z,20.27
2023-03-01T04:33:26.951Z,20.30
2023-03-01T04:35:55.380Z,19.77
2023-03-01T04:38:23.821Z,20.47
2023-03-01T04:40:52.097Z,19.57
2023-03-01T04:43:20.369Z,19.07
2023-03-01T04:45:48.554Z,19.17
2023-03-01T04:48:18.199Z,19.60
2023-03-01T04:50:46.487Z,19.80
2023-03-01T04:53:14.661Z,20.03
2023-03-01T04:55:42.812Z,19.47
2023-03-01T04:58:11.005Z,20.27
2023-03-01T05:00:39.622Z,20.40
2023-03-01T05:03:07.772Z,20.23
2023-03-01T05:05:38.916Z,20.70
2023-03-01T05:08:08.937Z,20.20
2023-03-01T05:10:39.732Z,20.57
2023-03-01T05:13:08.349Z,20.97
2023-03-01T05:15:37.506Z,21.07
2023-03-01T05:18:08.190Z,22.63
2023-03-01T05:20:38.614Z,24.20
2023-03-01T05:23:07.174Z,24.43
2023-03-01T05:25:41.030Z,23.23
2023-03-01T05:28:13.809Z,20.90
2023-03-01T05:30:42.892Z,20.50
2023-03-01T05:33:14.396Z,20.17
2023-03-01T05:35:45.660Z,21.93
2023-03-01T05:38:15.113Z,19.53
2023-03-01T05:40:44.496Z,22.33
2023-03-01T05:43:13.976Z,21.30
2023-03-01T05:45:42.796Z,22.00
2023-03-01T05:48:11.937Z,21.87
2023-03-01T05:50:41.939Z,21.33
2023-03-01T05:53:13.731Z,21.13
2023-03-01T05:55:42.421Z,20.53
2023-03-01T05:58:14.987Z,21.23
2023-03-01T06:00:44.145Z,19.33
2023-03-01T06:03:13.450Z,20.93
2023-03-01T06:05:42.629Z,21.00
2023-03-01T06:08:13.459Z,22.70
2023-03-01T06:10:41.943Z,22.43
2023-03-01T06:13:10.281Z,22.23
2023-03-01T06:15:38.613Z,21.20
2023-03-01T06:18:06.955Z,21.63
2023-03-01T06:20:35.154Z,22.73
2023-03-01T06:23:03.523Z,22.83
2023-03-01T06:25:33.339Z,22.80
2023-03-01T06:28:01.589Z,22.57
2023-03-01T06:30:29.885Z,22.17
2023-03-01T06:33:02.302Z,22.87
2023-03-01T06:35:32.185Z,23.33
2023-03-01T06:38:01.755Z,21.60
2023-03-01T06:40:30.290Z,23.03
2023-03-01T06:43:00.485Z,22.67
2023-03-01T06:45:28.803Z,25.13
2023-03-01T06:48:04.788Z,23.87
2023-03-01T06:50:33.436Z,25.60
2023-03-01T06:53:02.044Z,26.63
2023-03-01T06:55:30.330Z,27.47
2023-03-01T06:58:00.741Z,24.47
2023-03-01T07:00:30.276Z,22.33
2023-03-01T07:03:01.171Z,22.43
2023-03-01T07:05:31.948Z,31.03
2023-03-01T07:08:00.296Z,28.67
2023-03-01T07:10:28.785Z,23.33
2023-03-01T07:13:00.487Z,21.20
2023-03-01T07:15:34.788Z,22.90
2023-03-01T07:18:19.177Z,28.13
2023-03-01T07:20:47.521Z,30.03
2023-03-01T07:23:16.255Z,22.13
2023-03-01T07:25:44.497Z,32.37
2023-03-01T07:28:14.214Z,28.53
2023-03-01T07:30:42.518Z,21.47
2023-03-01T07:33:10.806Z,22.53
2023-03-01T07:35:39.096Z,25.80
2023-03-01T07:38:07.393Z,27.27
2023-03-01T07:40:35.674Z,23.90
2023-03-01T07:43:04.059Z,22.47
2023-03-01T07:45:33.614Z,34.50
2023-03-01T07:48:02.183Z,24.80
2023-03-01T07:50:30.807Z,22.37
2023-03-01T07:52:59.076Z,22.30
2023-03-01T07:55:27.354Z,22.00
2023-03-01T07:57:55.627Z,23.37
2023-03-01T08:00:24.201Z,27.33
2023-03-01T08:02:53.953Z,21.67
2023-03-01T08:05:23.143Z,22.57
2023-03-01T08:07:51.577Z,25.43
2023-03-01T08:10:20.502Z,19.73
2023-03-01T08:12:48.789Z,22.43
2023-03-01T08:15:17.305Z,22.47
2023-03-01T08:17:45.791Z,22.53
2023-03-01T08:20:15.747Z,21.13
2023-03-01T08:22:43.946Z,18.70
2023-03-01T08:25:12.253Z,22.23
2023-03-01T08:27:40.592Z,21.40
2023-03-01T08:30:10.363Z,20.90
2023-03-01T08:32:40.022Z,19.60
2023-03-01T08:35:09.404Z,21.83
2023-03-01T08:37:42.448Z,20.37
2023-03-01T08:40:14.447Z,21.30
2023-03-01T08:42:44.810Z,19.97
2023-03-01T08:45:15.158Z,21.47
2023-03-01T08:47:43.558Z,21.83
2023-03-01T08:50:12.652Z,21.23
2023-03-01T08:52:42.266Z,20.83
2023-03-01T08:55:11.164Z,20.77
2023-03-01T08:57:39.522Z,20.83
2023-03-01T09:00:10.470Z,21.07
2023-03-01T09:02:39.799Z,20.07
2023-03-01T09:05:08.727Z,21.03
2023-03-01T09:07:37.176Z,20.10
2023-03-01T09:10:08.104Z,21.13
2023-03-01T09:12:36.427Z,21.03
2023-03-01T09:15:05.721Z,21.80
2023-03-01T09:17:34.063Z,21.43
2023-03-01T09:20:02.560Z,21.10
2023-03-01T09:22:31.041Z,20.63
2023-03-01T09:25:00.172Z,21.20
2023-03-01T09:27:30.016Z,21.90
2023-03-01T09:29:58.253Z,20.20
2023-03-01T09:32:26.754Z,20.90
2023-03-01T09:35:05.890Z,20.13
2023-03-01T09:37:35.052Z,21.10
2023-03-01T09:40:04.214Z,20.53
2023-03-01T09:42:36.397Z,20.63
2023-03-01T09:45:08.215Z,20.43
2023-03-01T09:47:37.929Z,20.53
2023-03-01T09:50:11.619Z,19.53
2023-03-01T09:52:43.927Z,19.00
2023-03-01T09:55:16.006Z,20.83
2023-03-01T09:57:51.514Z,20.20
2023-03-01T10:00:32.352Z,20.10
2023-03-01T10:03:11.231Z,20.63
2023-03-01T10:05:59.436Z,21.37
2023-03-01T10:08:37.297Z,20.13
2023-03-01T10:11:07.527Z,20.67
2023-03-01T10:13:47.519Z,21.27
2023-03-01T10:16:21.765Z,21.10
2023-03-01T10:18:56.562Z,20.30
2023-03-01T10:21:25.277Z,22.13
2023-03-01T10:23:55.639Z,20.73
2023-03-01T10:26:40.641Z,19.67
2023-03-01T10:29:12.168Z,21.00
2023-03-01T10:31:46.521Z,21.23
2023-03-01T10:34:18.443Z,21.70
2023-03-01T10:36:50.417Z,20.17
2023-03-01T10:39:21.698Z,21.77
2023-03-01T10:42:05.284Z,21.67
2023-03-01T10:44:43.837Z,22.30
2023-03-01T10:47:22.697Z,24.37
2023-03-01T10:50:19.594Z,22.57
2023-03-01T10:52:59.721Z,21.33
2023-03-01T10:55:33.169Z,30.77
2023-03-01T10:58:20.166Z,20.63
2023-03-01T11:00:53.746Z,27.23
2023-03-01T11:03:25.476Z,19.83
2023-03-01T11:06:00.688Z,22.57
2023-03-01T11:08:43.703Z,20.40
2023-03-01T11:11:26.223Z,20.13
2023-03-01T11:13:59.886Z,21.90
2023-03-01T11:16:35.695Z,19.23
2023-03-01T11:19:21.676Z,20.93
2023-03-01T11:21:59.087Z,24.53
2023-03-01T11:24:32.358Z,20.40
2023-03-01T11:27:04.272Z,19.97
2023-03-01T11:29:47.881Z,20.27
2023-03-01T11:32:20.079Z,19.67
2023-03-01T11:34:53.055Z,19.45
2023-03-01T11:37:32.762Z,19.33
2023-03-01T11:40:12.562Z,23.15
2023-03-01T11:42:56.202Z,21.15
2023-03-01T11:45:26.929Z,23.33
2023-03-01T11:48:09.142Z,17.83
2023-03-01T11:50:43.016Z,18.23
2023-03-01T11:53:50.195Z,18.40
2023-03-01T11:56:28.881Z,19.05
2023-03-01T11:59:30.149Z,18.58
2023-03-01T12:02:22.987Z,18.83
2023-03-01T12:05:19.322Z,19.90
2023-03-01T12:07:55.129Z,18.83
2023-03-01T12:10:27.741Z,19.85
2023-03-01T12:13:22.093Z,19.10
2023-03-01T12:16:17.613Z,18.40
2023-03-01T12:19:10.767Z,17.48
2023-03-01T12:21:55.546Z,18.35
2023-03-01T12:24:42.114Z,17.95
2023-03-01T12:27:24.294Z,19.10
2023-03-01T12:30:01.814Z,17.95
2023-03-01T12:32:52.281Z,18.23
2023-03-01T12:35:53.441Z,18.48
2023-03-01T12:38:36.232Z,19.00
2023-03-01T12:41:25.284Z,16.83
2023-03-01T12:44:03.315Z,18.15
2023-03-01T12:46:49.414Z,18.20
2023-03-01T12:49:21.360Z,18.63
2023-03-01T12:51:58.724Z,18.00
2023-03-01T12:54:32.511Z,28.02
2023-03-01T12:57:11.146Z,31.48
2023-03-01T12:59:46.850Z,19.25
2023-03-01T13:02:25.271Z,17.40
2023-03-01T13:05:08.087Z,18.63
2023-03-01T13:07:42.206Z,18.58
2023-03-01T13:10:28.939Z,20.55
2023-03-01T13:13:13.100Z,19.55
2023-03-01T13:15:43.720Z,18.30
2023-03-01T13:18:33.475Z,19.60
2023-03-01T13:21:04.044Z,18.08
2023-03-01T13:23:38.983Z,17.77
2023-03-01T13:26:16.174Z,18.65
2023-03-01T13:28:56.900Z,17.15
2023-03-01T13:32:05.865Z,16.38
2023-03-01T13:34:52.192Z,18.02
2023-03-01T13:37:38.634Z,18.77
2023-03-01T13:40:47.163Z,17.50
2023-03-01T13:43:34.921Z,17.88
2023-03-01T13:46:10.495Z,17.30
2023-03-01T13:48:40.541Z,19.38
2023-03-01T13:51:12.930Z,19.27
2023-03-01T13:53:44.936Z,19.58
2023-03-01T13:56:16.031Z,18.08
2023-03-01T13:58:53.402Z,18.13
2023-03-01T14:01:31.262Z,18.27
2023-03-01T14:04:01.651Z,19.55
2023-03-01T14:06:32.478Z,18.17
2023-03-01T14:09:07.828Z,19.50
2023-03-01T14:12:07.485Z,18.58
2023-03-01T14:14:52.013Z,17.42
2023-03-01T14:17:51.681Z,18.10
2023-03-01T14:20:22.389Z,16.73
2023-03-01T14:22:54.353Z,18.17
2023-03-01T14:25:29.630Z,18.45
2023-03-01T14:28:06.116Z,18.30
2023-03-01T14:30:39.553Z,17.65
2023-03-01T14:33:22.008Z,18.20
2023-03-01T14:35:59.431Z,18.63
2023-03-01T14:38:35.659Z,17.95
2023-03-01T14:41:09.110Z,18.60
2023-03-01T14:43:38.184Z,16.50
2023-03-01T14:46:07.864Z,18.42
2023-03-01T14:48:36.209Z,18.10
2023-03-01T14:51:07.367Z,17.05
2023-03-01T14:53:50.103Z,17.10
2023-03-01T14:56:20.399Z,17.70
2023-03-01T14:58:52.921Z,27.60
2023-03-01T15:01:23.350Z,22.42
2023-03-01T15:03:52.953Z,18.83
2023-03-01T15:06:23.977Z,19.02
2023-03-01T15:08:54.256Z,18.35
2023-03-01T15:11:25.928Z,20.55
2023-03-01T15:13:55.967Z,19.20
2023-03-01T15:16:28.426Z,19.83
2023-03-01T15:18:58.717Z,17.55
2023-03-01T15:21:30.027Z,19.15
2023-03-01T15:24:02.822Z,18.13
2023-03-01T15:26:33.686Z,18.73
2023-03-01T15:29:03.055Z,19.52
2023-03-01T15:31:39.577Z,20.70
2023-03-01T15:34:22.027Z,20.58
2023-03-01T15:36:50.785Z,19.00
2023-03-01T15:39:34.040Z,19.77
2023-03-01T15:42:02.437Z,19.27
2023-03-01T15:44:41.600Z,19.40
2023-03-01T15:47:26.910Z,20.75
2023-03-01T15:49:56.381Z,20.10
2023-03-01T15:52:30.146Z,21.17
2023-03-01T15:55:01.154Z,19.10
2023-03-01T15:57:29.792Z,20.38
2023-03-01T15:59:58.102Z,21.27
2023-03-01T16:02:27.965Z,18.55
2023-03-01T16:04:57.613Z,18.50
2023-03-01T16:07:28.910Z,18.73
2023-03-01T16:09:57.339Z,19.63
2023-03-01T16:12:26.247Z,17.85
2023-03-01T16:14:55.185Z,19.10
2023-03-01T16:17:23.545Z,18.93
2023-03-01T16:19:53.181Z,18.17
2023-03-01T16:22:26.285Z,19.50
2023-03-01T16:24:54.932Z,20.33
2023-03-01T16:27:23.348Z,18.97
2023-03-01T16:29:54.194Z,20.70
2023-03-01T16:32:22.911Z,19.57
2023-03-01T16:34:52.975Z,19.77
2023-03-01T16:37:23.027Z,20.43
2023-03-01T16:39:52.203Z,20.07
2023-03-01T16:42:20.667Z,19.70
2023-03-01T16:44:49.048Z,19.83
2023-03-01T16:47:17.398Z,19.43
2023-03-01T16:49:45.816Z,20.20
2023-03-01T16:52:16.261Z,19.47
2023-03-01T16:54:44.689Z,20.40
2023-03-01T16:57:14.581Z,19.97
2023-03-01T16:59:44.267Z,21.47
2023-03-01T17:02:17.150Z,19.13
2023-03-01T17:04:46.302Z,21.57
2023-03-01T17:07:16.176Z,21.07
2023-03-01T17:09:44.455Z,21.87
2023-03-01T17:12:15.099Z,21.80
2023-03-01T17:14:44.824Z,20.27
2023-03-01T17:17:15.339Z,22.60
2023-03-01T17:19:45.309Z,20.57
2023-03-01T17:22:18.521Z,20.93
2023-03-01T17:24:48.275Z,20.00
2023-03-01T17:27:18.415Z,20.50
2023-03-01T17:29:47.041Z,20.43
2023-03-01T17:32:15.497Z,20.87
2023-03-01T17:34:43.875Z,20.93
2023-03-01T17:37:14.435Z,21.67
2023-03-01T17:39:44.430Z,22.90
2023-03-01T17:42:12.841Z,22.13
2023-03-01T17:44:43.827Z,21.90
2023-03-01T17:47:12.957Z,22.67
2023-03-01T17:49:41.400Z,22.53
2023-03-01T17:52:10.811Z,23.47
2023-03-01T17:54:39.350Z,22.33
2023-03-01T17:57:09.027Z,22.70
2023-03-01T17:59:39.082Z,21.03
2023-03-01T18:02:07.523Z,21.23
2023-03-01T18:04:36.375Z,20.83
2023-03-01T18:07:04.715Z,19.90
2023-03-01T18:09:33.032Z,19.77
2023-03-01T18:12:01.295Z,21.10
2023-03-01T18:14:33.999Z,20.50
2023-03-01T18:17:06.267Z,20.90
2023-03-01T18:19:35.004Z,20.53
2023-03-01T18:22:03.283Z,20.43
2023-03-01T18:24:33.287Z,20.30
2023-03-01T18:27:01.712Z,19.33
2023-03-01T18:29:32.674Z,20.57
2023-03-01T18:32:01.038Z,20.80
2023-03-01T18:34:29.794Z,20.33
2023-03-01T18:37:10.093Z,20.43
2023-03-01T18:39:38.741Z,20.03
2023-03-01T18:42:07.242Z,20.60
2023-03-01T18:44:38.681Z,21.97
2023-03-01T18:47:07.377Z,22.47
2023-03-01T18:49:35.775Z,24.60
2023-03-01T18:52:04.263Z,18.47
2023-03-01T18:54:36.011Z,22.23
2023-03-01T18:57:04.717Z,21.40
2023-03-01T18:59:38.298Z,20.23
2023-03-01T19:02:07.299Z,23.10
2023-03-01T19:04:35.603Z,20.13
2023-03-01T19:07:04.056Z,20.23
2023-03-01T19:09:32.533Z,19.87
2023-03-01T19:12:03.462Z,19.40
2023-03-01T19:14:31.784Z,19.23
2023-03-01T19:17:02.587Z,20.50
2023-03-01T19:19:31.096Z,19.30
2023-03-01T19:22:05.639Z,18.93
2023-03-01T19:24:35.139Z,20.03
2023-03-01T19:27:03.383Z,19.23
2023-03-01T19:29:35.194Z,20.63
2023-03-01T19:32:05.557Z,19.50
2023-03-01T19:34:35.488Z,19.70
2023-03-01T19:37:03.994Z,20.13
2023-03-01T19:39:32.289Z,20.50
2023-03-01T19:42:00.979Z,20.77
2023-03-01T19:44:29.402Z,20.17
2023-03-01T19:47:00.290Z,19.80
2023-03-01T19:49:30.358Z,21.27
2023-03-01T19:51:59.036Z,21.83
2023-03-01T19:54:27.621Z,21.33
2023-03-01T19:56:56.268Z,19.63
2023-03-01T19:59:27.738Z,20.30
2023-03-01T20:01:57.105Z,19.73
2023-03-01T20:04:25.657Z,20.07
2023-03-01T20:06:55.661Z,20.07
2023-03-01T20:09:24.856Z,20.53
2023-03-01T20:11:54.991Z,20.83
2023-03-01T20:14:24.216Z,20.67
2023-03-01T20:16:53.806Z,22.33
2023-03-01T20:19:22.251Z,20.83
2023-03-01T20:21:50.768Z,22.80
2023-03-01T20:24:21.560Z,24.67
2023-03-01T20:26:49.857Z,23.37
2023-03-01T20:29:18.289Z,22.57
2023-03-01T20:31:49.801Z,21.43
2023-03-01T20:34:18.336Z,20.93
2023-03-01T20:36:47.540Z,22.60
2023-03-01T20:39:16.120Z,21.20
2023-03-01T20:41:48.044Z,21.07
2023-03-01T20:44:16.432Z,20.87
2023-03-01T20:46:46.157Z,21.90
2023-03-01T20:49:14.800Z,23.97
2023-03-01T20:51:44.264Z,21.37
2023-03-01T20:54:12.761Z,20.37
2023-03-01T20:56:41.145Z,20.97
2023-03-01T20:59:13.810Z,20.53
2023-03-01T21:01:42.133Z,20.13
2023-03-01T21:04:10.501Z,20.27
2023-03-01T21:06:39.749Z,19.83
2023-03-01T21:09:08.040Z,20.13
2023-03-01T21:11:36.353Z,19.67
2023-03-01T21:14:06.077Z,20.20
2023-03-01T21:16:38.452Z,20.30
2023-03-01T21:19:08.915Z,19.70
2023-03-01T21:21:37.165Z,20.43
2023-03-01T21:24:10.135Z,21.77
2023-03-01T21:26:39.429Z,20.33
2023-03-01T21:29:07.734Z,19.70
2023-03-01T21:31:37.382Z,19.87
2023-03-01T21:34:07.294Z,21.00
2023-03-01T21:36:36.733Z,21.20
2023-03-01T21:39:07.680Z,20.97
2023-03-01T21:41:38.683Z,21.13
2023-03-01T21:44:08.318Z,21.67
2023-03-01T21:46:40.217Z,21.10
2023-03-01T21:49:09.480Z,21.33
2023-03-01T21:51:38.043Z,21.77
2023-03-01T21:54:07.061Z,20.80
2023-03-01T21:56:39.079Z,21.03
2023-03-01T21:59:09.502Z,20.80
2023-03-01T22:01:40.740Z,21.27
2023-03-01T22:04:09.145Z,20.63
2023-03-01T22:06:40.687Z,21.07
2023-03-01T22:09:12.637Z,21.30
2023-03-01T22:11:46.056Z,22.43
2023-03-01T22:14:14.763Z,22.13
2023-03-01T22:16:46.325Z,23.03
2023-03-01T22:19:16.201Z,22.97
2023-03-01T22:21:49.656Z,23.47
2023-03-01T22:24:19.311Z,26.10
2023-03-01T22:26:49.435Z,24.10
2023-03-01T22:29:20.414Z,24.07
2023-03-01T22:31:52.524Z,24.63
2023-03-01T22:34:21.731Z,22.57
2023-03-01T22:36:50.379Z,22.13
2023-03-01T22:39:21.392Z,20.73
2023-03-01T22:41:50.622Z,21.37
2023-03-01T22:44:23.622Z,21.10
2023-03-01T22:46:54.025Z,20.70
2023-03-01T22:49:23.337Z,20.50
2023-03-01T22:51:52.769Z,20.70
2023-03-01T22:54:22.589Z,20.77
2023-03-01T22:56:51.307Z,21.10
2023-03-01T22:59:23.084Z,21.17
2023-03-01T23:01:56.672Z,20.37
2023-03-01T23:04:26.669Z,20.67
2023-03-01T23:06:56.821Z,21.77
2023-03-01T23:09:30.256Z,22.07
2023-03-01T23:12:01.701Z,21.40
2023-03-01T23:14:32.717Z,21.73
2023-03-01T23:17:08.108Z,21.13
2023-03-01T23:19:36.425Z,21.27
2023-03-01T23:22:04.892Z,21.57
2023-03-01T23:24:33.247Z,21.20
2023-03-01T23:27:02.542Z,20.93
2023-03-01T23:29:32.733Z,22.30
2023-03-01T23:32:05.071Z,20.53
2023-03-01T23:34:33.632Z,20.70
2023-03-01T23:37:03.245Z,21.03
2023-03-01T23:39:32.538Z,21.10
2023-03-01T23:42:00.854Z,20.43
2023-03-01T23:44:30.409Z,21.57
2023-03-01T23:46:58.982Z,21.77
2023-03-01T23:49:28.792Z,21.07
2023-03-01T23:51:58.276Z,20.17
2023-03-01T23:54:28.434Z,21.03
2023-03-01T23:56:57.264Z,21.37
2023-03-01T23:59:26.955Z,21.20
